Terminal Aerodrome Forecast
Issued by NWS Mt. Holly, NJ

Home | Current Version | Previous Version | Text Only | Print | Product List | Glossary On
Versions: 1 2 3 4 5 6 7 8 9 10 11 12 13 14 15 16 17 18 19 20 21 22
000
FTUS41 KPHI 111120
TAFRDG
TAF
KRDG 111120Z 1112/1212 25004KT P6SM BKN050
     FM111500 28008KT P6SM SCT070 SCT250
     FM112000 23006KT P6SM SCT090 BKN250
     FM112300 17004KT P6SM SCT090 BKN250
     FM120500 14005KT P6SM OVC080=

USA.gov is the U.S. government's official web portal to all federal, state and local government web resources and services.